createdAt,value
2017-06-14T00:00:22.837Z,0
2017-06-14T00:01:03.378Z,0
2017-06-14T00:01:43.919Z,0
2017-06-14T00:02:24.451Z,0
2017-06-14T00:03:04.991Z,0
2017-06-14T00:03:45.531Z,0
2017-06-14T00:04:26.070Z,0
2017-06-14T00:05:06.606Z,0
2017-06-14T00:05:47.150Z,0
2017-06-14T00:06:27.697Z,0
2017-06-14T00:07:08.250Z,0
2017-06-14T00:07:48.794Z,0
2017-06-14T00:08:29.336Z,0
2017-06-14T00:09:09.880Z,0
2017-06-14T00:09:50.426Z,0
2017-06-14T00:10:30.969Z,0
2017-06-14T00:11:11.509Z,0
2017-06-14T00:11:52.043Z,0
2017-06-14T00:12:32.587Z,0
2017-06-14T00:13:13.126Z,0
2017-06-14T00:13:53.657Z,0
2017-06-14T00:14:34.201Z,0
2017-06-14T00:15:14.743Z,0
2017-06-14T00:15:55.284Z,0
2017-06-14T00:16:35.825Z,0
2017-06-14T00:17:16.363Z,0
2017-06-14T00:17:56.902Z,0
2017-06-14T00:18:37.438Z,0
2017-06-14T00:19:17.984Z,0
2017-06-14T00:19:58.528Z,0
2017-06-14T00:20:39.073Z,0
2017-06-14T00:21:19.610Z,0
2017-06-14T00:22:00.157Z,0
2017-06-14T00:22:40.692Z,0
2017-06-14T00:23:21.222Z,0
2017-06-14T00:24:01.755Z,0
2017-06-14T00:24:42.295Z,0
2017-06-14T00:25:22.827Z,0
2017-06-14T00:26:03.344Z,0
2017-06-14T00:26:43.890Z,0
2017-06-14T00:27:24.426Z,0
2017-06-14T00:28:04.971Z,0
2017-06-14T00:28:45.510Z,0
2017-06-14T00:29:26.050Z,0
2017-06-14T00:30:06.586Z,0
2017-06-14T00:30:47.134Z,0
2017-06-14T00:31:27.684Z,0
2017-06-14T00:32:08.221Z,0
2017-06-14T00:32:48.762Z,0
2017-06-14T00:33:29.310Z,0
2017-06-14T00:34:09.851Z,0
2017-06-14T00:34:50.389Z,0
2017-06-14T00:35:30.929Z,0
2017-06-14T00:36:11.470Z,0
2017-06-14T00:36:52.008Z,0
2017-06-14T00:37:32.550Z,0
2017-06-14T00:38:13.087Z,0
2017-06-14T00:38:53.626Z,0
2017-06-14T00:39:34.178Z,0
2017-06-14T00:40:14.724Z,0
2017-06-14T00:40:55.273Z,0
2017-06-14T00:41:35.807Z,0
2017-06-14T00:42:16.348Z,0
2017-06-14T00:42:56.886Z,0
2017-06-14T00:43:37.419Z,0
2017-06-14T00:44:17.979Z,0
2017-06-14T00:44:58.514Z,0
2017-06-14T00:45:39.051Z,0
2017-06-14T00:46:19.599Z,0
2017-06-14T00:47:00.143Z,0
2017-06-14T00:47:40.686Z,0
2017-06-14T00:48:21.224Z,0
2017-06-14T00:49:01.766Z,0
2017-06-14T00:49:42.288Z,0
2017-06-14T00:50:22.830Z,0
2017-06-14T00:51:03.365Z,0
2017-06-14T00:51:43.904Z,0
2017-06-14T00:52:24.450Z,0
2017-06-14T00:53:04.995Z,0
2017-06-14T00:53:45.533Z,0
2017-06-14T00:54:26.084Z,0
2017-06-14T00:55:06.624Z,0
2017-06-14T00:55:47.169Z,0
2017-06-14T00:56:27.706Z,0
2017-06-14T00:57:08.246Z,0
2017-06-14T00:57:48.777Z,0
2017-06-14T00:58:29.319Z,0
2017-06-14T00:59:09.860Z,0
2017-06-14T00:59:50.416Z,0
2017-06-14T01:00:30.952Z,0
2017-06-14T01:01:11.500Z,0
2017-06-14T01:01:52.041Z,0
2017-06-14T01:02:32.576Z,0
2017-06-14T01:03:13.118Z,0
2017-06-14T01:03:53.658Z,0
2017-06-14T01:04:34.198Z,0
2017-06-14T01:05:14.737Z,0
2017-06-14T01:05:55.277Z,0
2017-06-14T01:06:35.816Z,0
2017-06-14T01:07:16.358Z,0
2017-06-14T01:07:56.901Z,0
2017-06-14T01:08:37.443Z,0
2017-06-14T01:09:17.989Z,0
2017-06-14T01:09:58.546Z,0
2017-06-14T01:10:39.039Z,0
2017-06-14T01:11:19.578Z,0
2017-06-14T01:12:00.119Z,0
2017-06-14T01:12:40.657Z,0
2017-06-14T01:13:21.204Z,0
2017-06-14T01:14:01.742Z,0
2017-06-14T01:14:42.281Z,0
2017-06-14T01:15:22.824Z,0
2017-06-14T01:16:03.362Z,0
2017-06-14T01:16:43.904Z,0
2017-06-14T01:17:24.448Z,0
2017-06-14T01:18:04.992Z,0
2017-06-14T01:18:45.530Z,0
2017-06-14T01:19:26.078Z,0
2017-06-14T01:20:06.618Z,0
2017-06-14T01:20:47.186Z,0
2017-06-14T01:21:27.709Z,0
2017-06-14T01:22:08.263Z,0
2017-06-14T01:22:48.771Z,0
2017-06-14T01:23:29.308Z,0
2017-06-14T01:24:09.845Z,0
2017-06-14T01:24:50.382Z,0
2017-06-14T01:25:30.924Z,0
2017-06-14T01:26:11.461Z,0
2017-06-14T01:26:52.000Z,0
2017-06-14T01:27:32.551Z,0
2017-06-14T01:28:13.091Z,0
2017-06-14T01:28:53.632Z,0
2017-06-14T01:29:34.170Z,0
2017-06-14T01:30:14.710Z,0
2017-06-14T01:30:55.248Z,0
2017-06-14T01:31:35.809Z,0
2017-06-14T01:32:16.326Z,0
2017-06-14T01:32:56.870Z,0
2017-06-14T01:33:37.410Z,0
2017-06-14T01:34:17.949Z,0
2017-06-14T01:34:58.489Z,0
2017-06-14T01:35:39.028Z,0
2017-06-14T01:36:19.566Z,0
2017-06-14T01:37:00.102Z,0
2017-06-14T01:37:40.645Z,0
2017-06-14T01:38:21.185Z,0
2017-06-14T01:39:01.717Z,0
2017-06-14T01:39:42.273Z,0
2017-06-14T01:40:22.823Z,0
2017-06-14T01:41:03.366Z,0
2017-06-14T01:41:43.914Z,0
2017-06-14T01:42:24.444Z,0
2017-06-14T01:43:04.985Z,0
2017-06-14T01:43:45.510Z,0
2017-06-14T01:44:26.067Z,0
2017-06-14T01:45:06.590Z,0
2017-06-14T01:45:47.226Z,0
2017-06-14T01:46:27.764Z,0
2017-06-14T01:47:08.312Z,0
2017-06-14T01:47:48.847Z,0
2017-06-14T01:48:29.379Z,0
2017-06-14T01:49:09.916Z,0
2017-06-14T01:49:50.465Z,0
2017-06-14T01:50:31.025Z,0
2017-06-14T01:51:11.564Z,0
2017-06-14T01:51:52.098Z,0
2017-06-14T01:52:32.643Z,0
2017-06-14T01:53:13.182Z,0
2017-06-14T01:53:53.742Z,0
2017-06-14T01:54:34.297Z,0
2017-06-14T01:55:14.832Z,0
2017-06-14T01:55:55.387Z,0
2017-06-14T01:56:35.932Z,0
2017-06-14T01:57:16.470Z,0
2017-06-14T01:57:57.008Z,0
2017-06-14T01:58:37.540Z,0
2017-06-14T01:59:18.081Z,0
2017-06-14T01:59:58.620Z,0
2017-06-14T02:00:39.171Z,0
2017-06-14T02:01:19.725Z,0
2017-06-14T02:02:00.273Z,0
2017-06-14T02:02:40.810Z,0
2017-06-14T02:03:21.345Z,0
2017-06-14T02:04:01.905Z,0
2017-06-14T02:04:42.441Z,0
2017-06-14T02:05:23.001Z,0
2017-06-14T02:06:03.535Z,0
2017-06-14T02:06:44.074Z,0
2017-06-14T02:07:24.613Z,0
2017-06-14T02:08:05.153Z,0
2017-06-14T02:08:45.689Z,0
2017-06-14T02:09:26.231Z,0
2017-06-14T02:10:06.769Z,0
2017-06-14T02:10:47.330Z,0
2017-06-14T02:11:27.868Z,0
2017-06-14T02:12:08.407Z,0
2017-06-14T02:12:48.951Z,0
2017-06-14T02:13:29.492Z,0
2017-06-14T02:14:10.034Z,0
2017-06-14T02:14:50.565Z,0
2017-06-14T02:15:31.108Z,0
2017-06-14T02:16:11.647Z,0
2017-06-14T02:16:52.191Z,0
2017-06-14T02:17:32.727Z,0
2017-06-14T02:18:13.261Z,0
2017-06-14T02:18:53.812Z,0
2017-06-14T02:19:34.358Z,0
2017-06-14T02:20:14.916Z,0
2017-06-14T02:20:55.460Z,0
2017-06-14T02:21:35.997Z,0
2017-06-14T02:22:16.541Z,0
2017-06-14T02:22:57.079Z,0
2017-06-14T02:23:37.618Z,0
2017-06-14T02:24:18.154Z,0
2017-06-14T02:24:58.712Z,0
2017-06-14T02:25:39.250Z,0
2017-06-14T02:26:19.786Z,0
2017-06-14T02:27:00.340Z,0
2017-06-14T02:27:40.854Z,0
2017-06-14T02:28:21.381Z,0
2017-06-14T02:29:01.922Z,0
2017-06-14T02:29:42.462Z,0
2017-06-14T02:30:23.000Z,0
2017-06-14T02:31:03.540Z,0
2017-06-14T02:31:44.089Z,0
2017-06-14T02:32:24.634Z,0
2017-06-14T02:33:05.171Z,0
2017-06-14T02:33:45.706Z,0
2017-06-14T02:34:26.249Z,0
2017-06-14T02:35:06.791Z,0
2017-06-14T02:35:47.332Z,0
2017-06-14T02:36:27.872Z,0
2017-06-14T02:37:08.416Z,0
2017-06-14T02:37:48.958Z,0
2017-06-14T02:38:29.496Z,0
2017-06-14T02:39:10.039Z,0
2017-06-14T02:39:50.580Z,0
2017-06-14T02:40:31.142Z,0
2017-06-14T02:41:11.649Z,0
2017-06-14T02:41:52.207Z,0
2017-06-14T02:42:32.742Z,0
2017-06-14T02:43:13.285Z,0
2017-06-14T02:43:53.822Z,0
2017-06-14T02:44:34.363Z,0
2017-06-14T02:45:14.944Z,0
2017-06-14T02:45:55.481Z,0
2017-06-14T02:46:36.011Z,0
2017-06-14T02:47:16.551Z,0
2017-06-14T02:47:57.095Z,0
2017-06-14T02:48:37.620Z,0
2017-06-14T02:49:18.155Z,0
2017-06-14T02:49:58.691Z,0
2017-06-14T02:50:39.228Z,0
2017-06-14T02:51:19.770Z,0
2017-06-14T02:52:00.311Z,0
2017-06-14T02:52:40.851Z,0
2017-06-14T02:53:21.382Z,0
2017-06-14T02:54:01.928Z,0
2017-06-14T02:54:42.469Z,0
2017-06-14T02:55:23.008Z,0
2017-06-14T02:56:03.546Z,0
2017-06-14T02:56:44.087Z,0
2017-06-14T02:57:24.625Z,0
2017-06-14T02:58:05.164Z,0
2017-06-14T02:58:45.701Z,0
2017-06-14T02:59:26.241Z,0
2017-06-14T03:00:06.780Z,0
2017-06-14T03:00:47.325Z,0
2017-06-14T03:01:27.865Z,0
2017-06-14T03:02:08.413Z,0
2017-06-14T03:02:48.946Z,0
2017-06-14T03:03:29.484Z,0
2017-06-14T03:04:10.021Z,0
2017-06-14T03:04:50.572Z,0
2017-06-14T03:05:31.119Z,0
2017-06-14T03:06:11.659Z,0
2017-06-14T03:06:52.202Z,0
2017-06-14T03:07:32.734Z,0
2017-06-14T03:08:13.273Z,0
2017-06-14T03:08:53.813Z,0
2017-06-14T03:09:34.353Z,0
2017-06-14T03:10:14.888Z,0
2017-06-14T03:10:55.429Z,0
2017-06-14T03:11:35.972Z,0
2017-06-14T03:12:16.519Z,0
2017-06-14T03:12:57.057Z,0
2017-06-14T03:13:37.601Z,0
2017-06-14T03:14:18.130Z,0
2017-06-14T03:14:58.673Z,0
2017-06-14T03:15:39.208Z,0
2017-06-14T03:16:19.746Z,5
2017-06-14T03:17:00.284Z,5
2017-06-14T03:17:40.823Z,5
2017-06-14T03:18:21.363Z,5
2017-06-14T03:19:01.912Z,5
2017-06-14T03:19:42.441Z,5
2017-06-14T03:20:22.971Z,5
2017-06-14T03:21:03.515Z,5
2017-06-14T03:21:44.053Z,5
2017-06-14T03:22:24.586Z,5
2017-06-14T03:23:05.130Z,5
2017-06-14T03:23:45.704Z,5
2017-06-14T03:24:26.241Z,5
2017-06-14T03:25:06.782Z,5
2017-06-14T03:25:47.329Z,5
2017-06-14T03:26:27.864Z,5
2017-06-14T03:27:08.400Z,5
2017-06-14T03:27:48.939Z,10
2017-06-14T03:28:29.480Z,10
2017-06-14T03:29:10.021Z,10
2017-06-14T03:29:50.561Z,10
2017-06-14T03:30:31.098Z,10
2017-06-14T03:31:11.643Z,10
2017-06-14T03:31:52.179Z,10
2017-06-14T03:32:32.728Z,10
2017-06-14T03:33:13.290Z,10
2017-06-14T03:33:53.808Z,10
2017-06-14T03:34:34.344Z,10
2017-06-14T03:35:14.884Z,10
2017-06-14T03:35:55.422Z,10
2017-06-14T03:36:35.967Z,15
2017-06-14T03:37:16.503Z,15
2017-06-14T03:37:57.055Z,15
2017-06-14T03:38:37.604Z,15
2017-06-14T03:39:18.154Z,15
2017-06-14T03:39:59.330Z,15
2017-06-14T03:40:39.870Z,15
2017-06-14T03:41:20.404Z,15
2017-06-14T03:42:00.952Z,15
2017-06-14T03:42:41.490Z,20
2017-06-14T03:43:22.030Z,20
2017-06-14T03:44:02.569Z,20
2017-06-14T03:44:43.113Z,20
2017-06-14T03:45:23.660Z,20
2017-06-14T03:46:04.199Z,20
2017-06-14T03:46:44.740Z,20
2017-06-14T03:47:25.278Z,20
2017-06-14T03:48:05.816Z,20
2017-06-14T03:48:46.357Z,25
2017-06-14T03:49:26.896Z,25
2017-06-14T03:50:07.439Z,25
2017-06-14T03:50:47.981Z,25
2017-06-14T03:51:28.521Z,25
2017-06-14T03:52:09.069Z,25
2017-06-14T03:52:49.604Z,25
2017-06-14T03:53:30.150Z,25
2017-06-14T03:54:10.677Z,25
2017-06-14T03:54:51.250Z,25
2017-06-14T03:55:31.787Z,30
2017-06-14T03:56:12.327Z,30
2017-06-14T03:56:52.848Z,30
2017-06-14T03:57:33.386Z,30
2017-06-14T03:58:13.924Z,30
2017-06-14T03:58:54.458Z,30
2017-06-14T03:59:34.993Z,30
2017-06-14T04:00:15.539Z,30
2017-06-14T04:00:56.084Z,35
2017-06-14T04:01:36.677Z,35
2017-06-14T04:02:17.211Z,35
2017-06-14T04:02:57.748Z,35
2017-06-14T04:03:38.289Z,35
2017-06-14T04:04:18.816Z,35
2017-06-14T04:04:59.354Z,35
2017-06-14T04:05:39.892Z,35
2017-06-14T04:06:20.429Z,35
2017-06-14T04:07:00.957Z,40
2017-06-14T04:07:41.497Z,40
2017-06-14T04:08:22.083Z,40
2017-06-14T04:09:02.622Z,40
2017-06-14T04:09:43.167Z,40
2017-06-14T04:10:23.679Z,40
2017-06-14T04:11:04.217Z,40
2017-06-14T04:11:44.751Z,40
2017-06-14T04:12:25.293Z,40
2017-06-14T04:13:05.817Z,45
2017-06-14T04:13:46.334Z,45
2017-06-14T04:14:32.322Z,45
2017-06-14T04:15:13.805Z,45
2017-06-14T04:16:00.459Z,45
2017-06-14T04:18:39.081Z,45
2017-06-14T04:19:20.987Z,50
2017-06-14T04:20:02.159Z,50
2017-06-14T04:20:44.196Z,50
2017-06-14T04:21:24.866Z,50
2017-06-14T04:22:05.725Z,50
2017-06-14T04:22:46.555Z,50
2017-06-14T04:23:27.970Z,50
2017-06-14T04:24:08.598Z,50
2017-06-14T04:24:49.212Z,55
2017-06-14T04:25:29.996Z,55
2017-06-14T04:26:10.693Z,55
2017-06-14T04:26:51.958Z,55
2017-06-14T04:27:32.533Z,55
2017-06-14T04:28:13.723Z,55
2017-06-14T04:28:54.302Z,55
2017-06-14T04:29:35.110Z,55
2017-06-14T04:30:15.658Z,55
2017-06-14T04:30:56.201Z,60
2017-06-14T04:31:36.860Z,60
2017-06-14T04:32:17.531Z,60
2017-06-14T04:32:58.306Z,60
2017-06-14T04:33:38.916Z,60
2017-06-14T04:34:19.781Z,60
2017-06-14T04:35:00.541Z,60
2017-06-14T04:35:41.268Z,60
2017-06-14T04:36:22.086Z,60
2017-06-14T04:37:02.870Z,65
2017-06-14T04:37:43.730Z,65
2017-06-14T04:38:24.495Z,65
2017-06-14T04:39:05.149Z,65
2017-06-14T04:39:45.699Z,65
2017-06-14T04:40:26.487Z,65
2017-06-14T04:41:07.129Z,65
2017-06-14T04:41:47.634Z,65
2017-06-14T04:42:28.253Z,65
2017-06-14T04:43:08.789Z,70
2017-06-14T04:43:49.354Z,70
2017-06-14T04:44:29.895Z,70
2017-06-14T04:45:10.433Z,70
2017-06-14T04:45:51.012Z,70
2017-06-14T04:46:31.855Z,70
2017-06-14T04:47:12.411Z,70
2017-06-14T04:47:52.946Z,70
2017-06-14T04:48:33.556Z,70
2017-06-14T04:49:14.205Z,75
2017-06-14T04:49:54.860Z,75
2017-06-14T04:50:35.427Z,75
2017-06-14T04:51:16.038Z,75
2017-06-14T04:51:56.699Z,75
2017-06-14T04:52:37.249Z,75
2017-06-14T04:53:17.815Z,75
2017-06-14T04:53:58.558Z,75
2017-06-14T04:54:39.264Z,75
2017-06-14T04:55:19.756Z,80
2017-06-14T04:56:00.288Z,80
2017-06-14T04:56:40.836Z,80
2017-06-14T04:57:21.376Z,80
2017-06-14T04:58:02.194Z,80
2017-06-14T04:58:42.751Z,80
2017-06-14T04:59:23.751Z,80
2017-06-14T05:00:04.295Z,80
2017-06-14T05:00:44.849Z,80
2017-06-14T05:01:25.533Z,85
2017-06-14T05:02:06.115Z,85
2017-06-14T05:02:46.642Z,85
2017-06-14T05:03:27.174Z,85
2017-06-14T05:04:07.750Z,85
2017-06-14T05:04:48.283Z,85
2017-06-14T05:05:28.810Z,85
2017-06-14T05:06:09.349Z,85
2017-06-14T05:06:49.890Z,85
2017-06-14T05:07:30.407Z,90
2017-06-14T05:08:11.624Z,90
2017-06-14T05:08:52.160Z,90
2017-06-14T05:09:32.695Z,90
2017-06-14T05:10:13.237Z,90
2017-06-14T05:10:53.783Z,90
2017-06-14T05:11:34.346Z,90
2017-06-14T05:12:14.879Z,95
2017-06-14T05:12:55.407Z,95
2017-06-14T05:13:35.945Z,95
2017-06-14T05:14:16.495Z,95
2017-06-14T05:14:57.044Z,95
2017-06-14T05:15:37.602Z,95
2017-06-14T05:16:18.113Z,95
2017-06-14T05:16:58.662Z,100
2017-06-14T05:17:39.224Z,100
2017-06-14T05:18:19.764Z,100
2017-06-14T05:19:00.288Z,100
2017-06-14T05:19:40.820Z,100
2017-06-14T05:20:21.357Z,100
2017-06-14T05:21:01.890Z,105
2017-06-14T05:21:42.436Z,105
2017-06-14T05:22:22.967Z,105
2017-06-14T05:23:03.514Z,105
2017-06-14T05:23:44.035Z,105
2017-06-14T05:24:24.577Z,105
2017-06-14T05:25:05.107Z,105
2017-06-14T05:25:45.640Z,110
2017-06-14T05:26:26.186Z,110
2017-06-14T05:27:06.721Z,110
2017-06-14T05:27:47.308Z,115
2017-06-14T05:28:27.880Z,115
2017-06-14T05:29:09.846Z,115
2017-06-14T05:29:50.680Z,115
2017-06-14T05:30:31.748Z,115
2017-06-14T05:31:13.744Z,120
2017-06-14T05:31:55.792Z,120
2017-06-14T05:32:36.430Z,120
2017-06-14T05:33:18.593Z,120
2017-06-14T05:33:59.125Z,125
2017-06-14T05:34:41.351Z,125
2017-06-14T05:35:25.674Z,125
2017-06-14T05:36:09.603Z,130
2017-06-14T05:36:51.578Z,130
2017-06-14T05:37:33.140Z,130
2017-06-14T05:38:14.367Z,130
2017-06-14T05:38:54.984Z,130
2017-06-14T05:39:36.083Z,130
2017-06-14T05:40:17.176Z,135
2017-06-14T05:41:01.634Z,135
2017-06-14T05:41:45.004Z,135
2017-06-14T05:42:25.540Z,135
2017-06-14T05:43:06.084Z,140
2017-06-14T05:43:46.633Z,140
2017-06-14T05:44:27.141Z,140
2017-06-14T05:45:07.699Z,140
2017-06-14T05:45:48.225Z,140
2017-06-14T05:46:28.767Z,140
2017-06-14T05:47:09.299Z,140
2017-06-14T05:47:49.796Z,140
2017-06-14T05:48:30.323Z,140
2017-06-14T05:49:10.875Z,145
2017-06-14T05:49:51.411Z,145
2017-06-14T05:50:31.950Z,145
2017-06-14T05:51:12.764Z,150
2017-06-14T05:51:53.466Z,145
2017-06-14T05:52:34.025Z,145
2017-06-14T05:53:14.553Z,150
2017-06-14T05:53:55.080Z,150
2017-06-14T05:54:35.630Z,150
2017-06-14T05:55:16.162Z,150
2017-06-14T05:55:56.711Z,150
2017-06-14T05:56:37.244Z,150
2017-06-14T05:57:17.764Z,155
2017-06-14T05:57:58.284Z,155
2017-06-14T05:58:38.826Z,155
2017-06-14T05:59:19.366Z,155
2017-06-14T05:59:59.894Z,155
2017-06-14T06:00:40.425Z,155
2017-06-14T06:01:20.964Z,155
2017-06-14T06:02:01.510Z,160
2017-06-14T06:02:42.037Z,160
2017-06-14T06:03:22.575Z,160
2017-06-14T06:04:03.125Z,160
2017-06-14T06:04:43.689Z,160
2017-06-14T06:05:24.195Z,160
2017-06-14T06:06:04.739Z,165
2017-06-14T06:06:45.277Z,165
2017-06-14T06:07:25.831Z,165
2017-06-14T06:08:06.364Z,165
2017-06-14T06:08:46.905Z,165
2017-06-14T06:09:27.447Z,165
2017-06-14T06:10:07.983Z,165
2017-06-14T06:10:48.571Z,170
2017-06-14T06:11:29.112Z,170
2017-06-14T06:12:09.649Z,170
2017-06-14T06:12:50.192Z,175
2017-06-14T06:13:30.728Z,175
2017-06-14T06:14:11.273Z,175
2017-06-14T06:14:51.811Z,175
2017-06-14T06:15:32.359Z,175
2017-06-14T06:16:12.914Z,180
2017-06-14T06:16:53.461Z,180
2017-06-14T06:17:34.007Z,180
2017-06-14T06:18:14.547Z,180
2017-06-14T06:18:55.075Z,180
2017-06-14T06:19:35.607Z,185
2017-06-14T06:20:16.137Z,185
2017-06-14T06:20:56.682Z,185
2017-06-14T06:21:37.233Z,185
2017-06-14T06:22:17.785Z,185
2017-06-14T06:22:58.338Z,185
2017-06-14T06:23:38.886Z,185
2017-06-14T06:24:19.428Z,190
2017-06-14T06:24:59.959Z,190
2017-06-14T06:25:40.498Z,190
2017-06-14T06:26:21.039Z,190
2017-06-14T06:27:01.578Z,190
2017-06-14T06:27:42.128Z,195
2017-06-14T06:28:22.668Z,195
2017-06-14T06:29:03.212Z,195
2017-06-14T06:29:43.746Z,195
2017-06-14T06:30:24.310Z,195
2017-06-14T06:31:04.850Z,195
2017-06-14T06:31:45.414Z,200
2017-06-14T06:32:25.961Z,200
2017-06-14T06:33:06.510Z,200
2017-06-14T06:33:47.097Z,200
2017-06-14T06:34:27.646Z,205
2017-06-14T06:35:08.155Z,200
2017-06-14T06:35:48.670Z,205
2017-06-14T06:36:29.197Z,205
2017-06-14T06:37:09.736Z,205
2017-06-14T06:37:50.277Z,205
2017-06-14T06:38:30.804Z,205
2017-06-14T06:39:11.352Z,205
2017-06-14T06:39:51.895Z,205
2017-06-14T06:40:32.392Z,210
2017-06-14T06:41:13.000Z,210
2017-06-14T06:41:53.748Z,210
2017-06-14T06:42:34.317Z,210
2017-06-14T06:43:14.906Z,210
2017-06-14T06:43:55.639Z,215
2017-06-14T06:44:36.216Z,215
2017-06-14T06:45:16.886Z,215
2017-06-14T06:45:57.486Z,215
2017-06-14T06:46:38.027Z,220
2017-06-14T06:47:18.542Z,220
2017-06-14T06:47:59.118Z,220
2017-06-14T06:48:39.674Z,220
2017-06-14T06:49:20.342Z,220
2017-06-14T06:50:00.828Z,225
2017-06-14T06:50:41.388Z,225
2017-06-14T06:51:21.921Z,225
2017-06-14T06:52:02.468Z,230
2017-06-14T06:52:43.077Z,230
2017-06-14T06:53:23.706Z,230
2017-06-14T06:54:04.282Z,230
2017-06-14T06:54:44.792Z,235
2017-06-14T06:55:25.360Z,235
2017-06-14T06:56:05.895Z,235
2017-06-14T06:56:46.440Z,235
2017-06-14T06:57:27.046Z,240
2017-06-14T06:58:07.621Z,240
2017-06-14T06:58:48.189Z,240
2017-06-14T06:59:28.716Z,245
2017-06-14T07:00:09.255Z,245
2017-06-14T07:00:49.799Z,245
2017-06-14T07:01:30.351Z,245
2017-06-14T07:02:10.877Z,250
2017-06-14T07:02:51.407Z,250
2017-06-14T07:03:31.944Z,255
2017-06-14T07:04:12.496Z,255
2017-06-14T07:04:53.054Z,255
2017-06-14T07:05:33.604Z,255
2017-06-14T07:06:14.129Z,255
2017-06-14T07:06:54.662Z,260
2017-06-14T07:07:35.225Z,260
2017-06-14T07:08:15.784Z,260
2017-06-14T07:08:56.315Z,260
2017-06-14T07:09:36.867Z,260
2017-06-14T07:10:17.468Z,260
2017-06-14T07:10:57.994Z,265
2017-06-14T07:11:38.527Z,265
2017-06-14T07:12:19.085Z,265
2017-06-14T07:12:59.619Z,265
2017-06-14T07:13:40.163Z,270
2017-06-14T07:14:20.697Z,270
2017-06-14T07:15:01.249Z,270
2017-06-14T07:15:41.810Z,270
2017-06-14T07:16:22.360Z,275
2017-06-14T07:17:02.884Z,275
2017-06-14T07:17:43.440Z,275
2017-06-14T07:18:23.970Z,275
2017-06-14T07:19:04.509Z,275
2017-06-14T07:19:45.072Z,275
2017-06-14T07:20:25.630Z,280
2017-06-14T07:21:06.165Z,280
2017-06-14T07:21:46.745Z,280
2017-06-14T07:22:27.272Z,280
2017-06-14T07:23:07.810Z,285
2017-06-14T07:23:48.369Z,285
2017-06-14T07:24:28.913Z,285
2017-06-14T07:25:09.456Z,290
2017-06-14T07:25:50.017Z,290
2017-06-14T07:26:30.554Z,290
2017-06-14T07:27:11.103Z,295
2017-06-14T07:27:51.700Z,295
2017-06-14T07:28:32.229Z,295
2017-06-14T07:29:12.780Z,295
2017-06-14T07:29:53.320Z,300
2017-06-14T07:30:33.841Z,300
2017-06-14T07:31:14.386Z,305
2017-06-14T07:31:54.917Z,305
2017-06-14T07:32:35.468Z,310
2017-06-14T07:33:15.995Z,310
2017-06-14T07:33:56.523Z,315
2017-06-14T07:34:37.087Z,315
2017-06-14T07:35:17.632Z,320
2017-06-14T07:35:58.170Z,325
2017-06-14T07:36:38.716Z,325
2017-06-14T07:37:19.264Z,330
2017-06-14T07:37:59.786Z,340
2017-06-14T07:38:40.300Z,345
2017-06-14T07:39:20.839Z,350
2017-06-14T07:40:01.360Z,375
2017-06-14T07:40:41.917Z,455
2017-06-14T07:41:22.466Z,780
2017-06-14T07:42:02.996Z,1245
2017-06-14T07:42:43.532Z,1690
2017-06-14T07:43:24.100Z,1975
2017-06-14T07:44:04.641Z,1980
2017-06-14T07:44:45.173Z,2015
2017-06-14T07:45:25.709Z,2055
2017-06-14T07:46:06.225Z,2070
2017-06-14T07:46:46.765Z,2050
2017-06-14T07:47:27.322Z,2030
2017-06-14T07:48:07.856Z,1650
2017-06-14T07:48:48.420Z,1005
2017-06-14T07:49:28.960Z,490
2017-06-14T07:50:09.561Z,390
2017-06-14T07:50:50.080Z,370
2017-06-14T07:51:30.626Z,365
2017-06-14T07:52:11.153Z,355
2017-06-14T07:52:51.688Z,355
2017-06-14T07:53:32.226Z,365
2017-06-14T07:54:12.776Z,335
2017-06-14T07:54:53.316Z,355
2017-06-14T07:55:33.853Z,355
2017-06-14T07:56:14.414Z,355
2017-06-14T07:56:54.944Z,355
2017-06-14T07:57:35.500Z,355
2017-06-14T07:58:16.061Z,355
2017-06-14T07:58:56.605Z,355
2017-06-14T07:59:37.138Z,360
2017-06-14T08:00:17.697Z,370
2017-06-14T08:00:58.260Z,365
2017-06-14T08:01:38.805Z,370
2017-06-14T08:02:19.348Z,375
2017-06-14T08:02:59.873Z,375
2017-06-14T08:03:40.413Z,375
2017-06-14T08:04:20.978Z,385
2017-06-14T08:05:01.587Z,385
2017-06-14T08:05:42.176Z,395
2017-06-14T08:06:22.672Z,400
2017-06-14T08:07:03.221Z,475
2017-06-14T08:07:43.761Z,1085
2017-06-14T08:08:24.324Z,1900
2017-06-14T08:09:04.874Z,2390
2017-06-14T08:09:45.422Z,2420
2017-06-14T08:10:25.968Z,2415
2017-06-14T08:11:06.514Z,2520
2017-06-14T08:11:47.069Z,2450
2017-06-14T08:12:27.617Z,2420
2017-06-14T08:13:08.144Z,2470
2017-06-14T08:13:48.708Z,2495
2017-06-14T08:14:29.247Z,2585
2017-06-14T08:15:09.815Z,2505
2017-06-14T08:15:50.369Z,2470
2017-06-14T08:16:30.919Z,2465
2017-06-14T08:17:11.451Z,2450
2017-06-14T08:17:52.028Z,2550
2017-06-14T08:18:32.570Z,2635
2017-06-14T08:19:13.104Z,2695
2017-06-14T08:19:53.676Z,2760
2017-06-14T08:20:34.248Z,2760
2017-06-14T08:21:14.790Z,2740
2017-06-14T08:21:55.387Z,2755
2017-06-14T08:22:35.931Z,2780
2017-06-14T08:23:16.453Z,2790
2017-06-14T08:23:56.997Z,2715
2017-06-14T08:24:37.536Z,2685
2017-06-14T08:25:18.087Z,2710
2017-06-14T08:25:58.636Z,2790
2017-06-14T08:26:39.195Z,2830
2017-06-14T08:27:19.741Z,2750
2017-06-14T08:28:00.291Z,2750
2017-06-14T08:28:40.842Z,2735
2017-06-14T08:29:21.400Z,2755
2017-06-14T08:30:01.944Z,2735
2017-06-14T08:30:42.494Z,2730
2017-06-14T08:31:23.038Z,2750
2017-06-14T08:32:03.578Z,2620
2017-06-14T08:32:44.179Z,660
2017-06-14T08:33:24.714Z,1235
2017-06-14T08:34:05.254Z,2615
2017-06-14T08:34:45.800Z,1935
2017-06-14T08:35:26.350Z,1970
2017-06-14T08:36:06.913Z,2675
2017-06-14T08:36:47.457Z,2885
2017-06-14T08:37:28.003Z,2845
2017-06-14T08:38:08.574Z,3005
2017-06-14T08:38:49.146Z,2975
2017-06-14T08:39:29.722Z,2960
2017-06-14T08:40:10.294Z,3065
2017-06-14T08:40:50.867Z,2965
2017-06-14T08:41:31.440Z,2820
2017-06-14T08:42:11.987Z,2620
2017-06-14T08:42:52.524Z,2470
2017-06-14T08:43:33.067Z,2430
2017-06-14T08:44:13.617Z,2605
2017-06-14T08:44:54.165Z,2875
2017-06-14T08:45:34.714Z,3085
2017-06-14T08:46:15.264Z,3255
2017-06-14T08:46:55.809Z,3425
2017-06-14T08:47:36.363Z,3490
2017-06-14T08:48:16.915Z,3470
2017-06-14T08:48:57.493Z,3425
2017-06-14T08:49:38.019Z,3375
2017-06-14T08:52:07.591Z,3230
2017-06-14T08:52:48.090Z,3250
2017-06-14T08:53:28.635Z,3170
2017-06-14T08:54:09.185Z,3040
2017-06-14T08:54:49.724Z,2750
2017-06-14T08:55:30.253Z,2730
2017-06-14T08:56:10.801Z,3060
2017-06-14T08:56:51.330Z,3215
2017-06-14T08:57:31.884Z,3235
2017-06-14T08:58:12.425Z,3295
2017-06-14T08:58:52.988Z,3355
2017-06-14T08:59:33.546Z,3390
2017-06-14T09:00:14.097Z,3370
2017-06-14T09:00:54.642Z,3415
2017-06-14T09:01:35.193Z,3450
2017-06-14T09:02:15.790Z,3490
2017-06-14T09:02:56.320Z,3580
2017-06-14T09:03:36.843Z,3650
2017-06-14T09:04:17.352Z,2040
2017-06-14T09:04:57.880Z,1105
2017-06-14T09:05:38.418Z,2030
2017-06-14T09:06:18.956Z,3370
2017-06-14T09:06:59.529Z,2995
2017-06-14T09:07:40.082Z,3185
2017-06-14T09:08:20.618Z,3045
2017-06-14T09:09:01.158Z,2705
2017-06-14T09:09:41.673Z,2320
2017-06-14T09:10:22.208Z,1890
2017-06-14T09:11:02.741Z,1460
2017-06-14T09:11:43.265Z,1095
2017-06-14T09:12:23.851Z,775
2017-06-14T09:13:04.371Z,615
2017-06-14T09:13:44.876Z,585
2017-06-14T09:14:25.411Z,580
2017-06-14T09:15:05.953Z,575
2017-06-14T09:15:46.494Z,580
2017-06-14T09:16:27.026Z,575
2017-06-14T09:17:07.672Z,590
2017-06-14T09:17:48.180Z,590
2017-06-14T09:18:28.714Z,570
2017-06-14T09:19:09.213Z,600
2017-06-14T09:19:49.737Z,630
2017-06-14T09:20:30.269Z,590
2017-06-14T09:21:10.798Z,600
2017-06-14T09:21:51.354Z,590
2017-06-14T09:22:31.914Z,570
2017-06-14T09:23:12.452Z,560
2017-06-14T09:23:53.002Z,560
2017-06-14T09:24:33.554Z,555
2017-06-14T09:25:14.098Z,555
2017-06-14T09:25:54.646Z,555
2017-06-14T09:26:35.197Z,550
2017-06-14T09:27:15.736Z,550
2017-06-14T09:27:56.294Z,550
2017-06-14T09:28:36.851Z,560
2017-06-14T09:29:17.559Z,570
2017-06-14T09:29:58.132Z,585
2017-06-14T09:30:38.677Z,595
2017-06-14T09:31:19.221Z,600
2017-06-14T09:31:59.769Z,600
2017-06-14T09:32:40.330Z,605
2017-06-14T09:33:20.921Z,610
2017-06-14T09:34:01.473Z,735
2017-06-14T09:34:42.006Z,1445
2017-06-14T09:35:22.554Z,2420
2017-06-14T09:36:03.099Z,3230
2017-06-14T09:36:43.656Z,3055
2017-06-14T09:37:24.208Z,2270
2017-06-14T09:38:04.791Z,1335